Time;durP1;ratioP1;P1;durP2;ratioP2;P2;SDS_P1;SDS_P2;PMS_P1;PMS_P2;Temp;Humidity;BMP_temperature;BMP_pressure;BME280_temperature;BME280_humidity;BME280_pressure;Samples;Min_cycle;Max_cycle;Signal;HPM_P1;HPM_P2
2022/08/13 00:02:19;;;;;;;4.07;1.52;;;;;;;;;;4895379;29;20060;-68
2022/08/13 00:05:05;;;;;;;2.40;1.40;;;;;;;;;;4928057;28;20512;-69
2022/08/13 00:07:55;;;;;;;3.95;1.58;;;;;;;;;;4949935;28;20059;-70
2022/08/13 00:10:29;;;;;;;4.65;2.53;;;;;;;;;;4949825;28;20067;-69
2022/08/13 00:13:03;;;;;;;4.70;1.40;;;;;;;;;;4929928;29;20052;-69
2022/08/13 00:15:38;;;;;;;4.85;2.05;;;;;;;;;;4910909;29;20044;-69
2022/08/13 00:18:18;;;;;;;3.75;1.75;;;;;;;;;;4907785;29;20057;-71
2022/08/13 00:20:59;;;;;;;4.82;1.88;;;;;;;;;;4892569;29;20060;-69
2022/08/13 00:23:31;;;;;;;5.57;2.15;;;;;;;;;;4892529;29;20060;-69
2022/08/13 00:26:22;;;;;;;5.10;1.65;;;;;;;;;;4958521;28;20639;-69
2022/08/13 00:29:03;;;;;;;4.22;2.05;;;;;;;;;;4968514;28;20066;-69
2022/08/13 00:31:38;;;;;;;5.07;2.22;;;;;;;;;;4953557;28;20054;-71
2022/08/13 00:34:09;;;;;;;4.93;2.88;;;;;;;;;;4954252;28;20062;-69
2022/08/13 00:36:41;;;;;;;3.72;2.03;;;;;;;;;;4976875;28;20062;-70
2022/08/13 00:39:11;;;;;;;7.65;2.80;;;;;;;;;;4995673;28;20050;-69
2022/08/13 00:41:46;;;;;;;4.60;2.50;;;;;;;;;;4978310;28;20052;-72
2022/08/13 00:44:31;;;;;;;6.05;2.65;;;;;;;;;;5003598;28;20053;-70
2022/08/13 00:49:51;;;;;;;4.88;2.35;;;;;;;;;;5010869;28;20042;-69
2022/08/13 00:52:31;;;;;;;4.38;1.73;;;;;;;;;;5010535;28;20421;-70
2022/08/13 00:55:19;;;;;;;4.90;2.70;;;;;;;;;;5016764;28;20057;-69
2022/08/13 00:57:53;;;;;;;5.45;2.45;;;;;;;;;;5017104;28;20074;-69
2022/08/13 01:00:25;;;;;;;5.57;1.98;;;;;;;;;;4984446;28;20037;-72
2022/08/13 01:02:58;;;;;;;5.20;2.28;;;;;;;;;;5050505;28;20057;-71
2022/08/13 01:05:48;;;;;;;7.05;2.60;;;;;;;;;;5048259;28;20049;-70
2022/08/13 01:08:19;;;;;;;5.15;2.30;;;;;;;;;;4981463;28;20068;-70
2022/08/13 01:10:59;;;;;;;;;;;;;;;;;;5010643;28;20383;-73
2022/08/13 01:13:33;;;;;;;4.43;2.10;;;;;;;;;;5010100;28;19929;-70
2022/08/13 01:16:16;;;;;;;6.57;2.42;;;;;;;;;;5010185;28;20564;-70
2022/08/13 01:18:52;;;;;;;7.68;2.45;;;;;;;;;;5010602;28;20064;-70
2022/08/13 01:21:31;;;;;;;4.68;2.22;;;;;;;;;;5016635;28;20061;-70
2022/08/13 01:24:11;;;;;;;6.93;2.47;;;;;;;;;;5030404;28;20059;-70
2022/08/13 01:26:42;;;;;;;;;;;;;;;;;;5034048;28;20408;-72
2022/08/13 01:29:16;;;;;;;6.40;2.65;;;;;;;;;;5055938;28;19920;-70
2022/08/13 01:31:51;;;;;;;5.43;2.38;;;;;;;;;;5089992;28;20055;-70
2022/08/13 01:34:22;;;;;;;6.38;2.90;;;;;;;;;;5090371;28;20183;-70
2022/08/13 01:36:57;;;;;;;8.10;2.80;;;;;;;;;;5040037;28;20515;-71
2022/08/13 01:39:29;;;;;;;6.55;2.42;;;;;;;;;;5090148;28;20439;-69
2022/08/13 01:42:13;;;;;;;6.60;2.83;;;;;;;;;;5049679;28;20052;-69
2022/08/13 01:44:47;;;;;;;6.93;3.20;;;;;;;;;;5034362;28;20059;-70
2022/08/13 01:50:31;;;;;;;7.97;2.70;;;;;;;;;;5090178;28;20047;-69
2022/08/13 01:53:09;;;;;;;4.68;2.30;;;;;;;;;;5073303;28;20055;-70
2022/08/13 01:55:45;;;;;;;6.72;3.35;;;;;;;;;;5090051;28;20051;-69
2022/08/13 01:58:36;;;;;;;7.85;2.58;;;;;;;;;;5089671;28;20397;-70
2022/08/13 02:01:27;;;;;;;7.47;3.17;;;;;;;;;;5075858;28;20052;-70
2022/08/13 02:04:14;;;;;;;6.78;3.25;;;;;;;;;;5056043;28;20048;-70
2022/08/13 02:06:52;;;;;;;10.77;3.72;;;;;;;;;;5074042;28;20059;-70
2022/08/13 02:09:24;;;;;;;5.50;3.22;;;;;;;;;;5089412;28;20515;-70
2022/08/13 02:12:15;;;;;;;10.65;3.40;;;;;;;;;;5089370;28;20055;-69
2022/08/13 02:15:06;;;;;;;7.75;2.95;;;;;;;;;;5089214;28;20040;-70
2022/08/13 02:17:41;;;;;;;7.88;3.65;;;;;;;;;;5048800;28;20699;-70
2022/08/13 02:20:37;;;;;;;7.57;3.25;;;;;;;;;;5025258;28;20065;-70
2022/08/13 02:23:08;;;;;;;6.38;3.00;;;;;;;;;;4980193;28;20509;-69
2022/08/13 02:25:38;;;;;;;8.05;3.45;;;;;;;;;;5028961;28;20049;-71
2022/08/13 02:28:10;;;;;;;6.07;3.47;;;;;;;;;;4970208;28;20061;-70
2022/08/13 02:30:51;;;;;;;;;;;;;;;;;;4970874;28;20412;-69
2022/08/13 02:33:24;;;;;;;8.23;3.30;;;;;;;;;;4969833;28;19922;-71
2022/08/13 02:35:54;;;;;;;9.13;3.03;;;;;;;;;;4970123;28;20087;-71
2022/08/13 02:38:26;;;;;;;6.97;3.05;;;;;;;;;;4970326;28;20499;-74
2022/08/13 02:43:52;;;;;;;9.30;2.85;;;;;;;;;;4931500;29;20067;-70
2022/08/13 02:46:27;;;;;;;7.97;3.20;;;;;;;;;;4931390;29;20066;-69
2022/08/13 02:49:01;;;;;;;7.30;3.08;;;;;;;;;;4893425;29;20071;-70
2022/08/13 02:51:47;;;;;;;6.38;3.50;;;;;;;;;;4906449;29;20097;-70
2022/08/13 02:54:43;;;;;;;7.07;3.17;;;;;;;;;;4921457;29;20066;-69
2022/08/13 02:57:25;;;;;;;10.52;3.28;;;;;;;;;;4949881;28;20059;-70
2022/08/13 02:59:59;;;;;;;11.75;3.80;;;;;;;;;;4950763;29;20060;-70
2022/08/13 03:02:43;;;;;;;9.88;3.95;;;;;;;;;;4950871;29;20054;-69
2022/08/13 03:05:17;;;;;;;7.38;3.80;;;;;;;;;;4937607;28;20054;-69
2022/08/13 03:07:48;;;;;;;5.88;3.50;;;;;;;;;;4937537;28;20051;-69
2022/08/13 03:10:23;;;;;;;9.85;3.53;;;;;;;;;;4983118;28;20058;-69
2022/08/13 03:13:32;;;;;;;11.88;4.00;;;;;;;;;;5027956;28;20064;-69
2022/08/13 03:16:18;;;;;;;8.88;4.15;;;;;;;;;;4988920;28;20057;-69
2022/08/13 03:18:53;;;;;;;7.82;3.90;;;;;;;;;;5022932;28;20072;-70
2022/08/13 03:21:39;;;;;;;6.85;3.20;;;;;;;;;;4978873;28;20058;-70
2022/08/13 03:24:18;;;;;;;8.70;4.20;;;;;;;;;;5008629;28;20058;-70
2022/08/13 03:27:01;;;;;;;10.55;3.92;;;;;;;;;;5021620;28;20053;-70
2022/08/13 03:29:31;;;;;;;8.13;3.78;;;;;;;;;;5012299;28;20049;-70
2022/08/13 03:32:25;;;;;;;8.75;3.70;;;;;;;;;;5027871;28;20571;-70
2022/08/13 03:35:25;;;;;;;9.35;3.72;;;;;;;;;;5014259;28;20053;-70
2022/08/13 03:38:14;;;;;;;9.60;3.38;;;;;;;;;;5028085;28;20070;-70
2022/08/13 03:41:11;;;;;;;6.13;3.60;;;;;;;;;;5028150;28;20049;-70
2022/08/13 03:43:45;;;;;;;8.60;4.30;;;;;;;;;;5028192;28;20045;-70
2022/08/13 03:46:25;;;;;;;11.15;3.95;;;;;;;;;;5005792;28;20055;-70
2022/08/13 03:48:56;;;;;;;8.05;3.83;;;;;;;;;;5088172;28;20083;-70
2022/08/13 03:51:26;;;;;;;8.75;3.75;;;;;;;;;;5027598;28;20080;-70
2022/08/13 03:54:05;;;;;;;6.90;3.45;;;;;;;;;;5047599;28;20041;-70
2022/08/13 03:56:39;;;;;;;7.75;3.50;;;;;;;;;;5047763;28;20057;-71
2022/08/13 03:59:23;;;;;;;7.82;3.25;;;;;;;;;;5046012;28;20056;-69
2022/08/13 04:02:01;;;;;;;14.38;3.88;;;;;;;;;;5088221;28;20067;-70
2022/08/13 04:04:35;;;;;;;8.43;3.28;;;;;;;;;;5015868;28;20087;-70
2022/08/13 04:07:09;;;;;;;10.23;3.70;;;;;;;;;;5031881;28;20049;-69
2022/08/13 04:09:43;;;;;;;7.50;3.65;;;;;;;;;;5051506;28;20065;-69
2022/08/13 04:12:23;;;;;;;8.07;3.67;;;;;;;;;;5051288;28;20578;-69
2022/08/13 04:14:54;;;;;;;6.32;3.45;;;;;;;;;;5051433;28;20072;-69
2022/08/13 04:17:30;;;;;;;10.57;3.67;;;;;;;;;;5018338;28;20056;-70
2022/08/13 04:20:05;;;;;;;7.22;2.55;;;;;;;;;;5051456;28;20404;-69
2022/08/13 04:22:41;;;;;;;6.90;3.50;;;;;;;;;;5051428;28;20061;-69
2022/08/13 04:25:12;;;;;;;8.20;4.22;;;;;;;;;;5001602;28;20056;-69
2022/08/13 04:27:57;;;;;;;8.43;3.60;;;;;;;;;;5051416;28;20076;-70
2022/08/13 04:30:40;;;;;;;7.93;3.85;;;;;;;;;;5012061;28;20096;-70
2022/08/13 04:33:13;;;;;;;8.32;3.35;;;;;;;;;;5017897;28;20053;-70
2022/08/13 04:36:05;;;;;;;10.68;4.30;;;;;;;;;;5051106;28;20048;-70
2022/08/13 04:38:36;;;;;;;10.05;3.58;;;;;;;;;;5034732;28;20056;-70
2022/08/13 04:41:07;;;;;;;6.85;3.47;;;;;;;;;;5018707;28;20053;-71
2022/08/13 04:43:37;;;;;;;10.35;3.20;;;;;;;;;;5071043;28;20055;-69
2022/08/13 04:46:10;;;;;;;10.07;3.42;;;;;;;;;;5071280;28;20528;-69
2022/08/13 04:48:40;;;;;;;10.95;3.38;;;;;;;;;;5070680;28;20049;-71
2022/08/13 04:51:14;;;;;;;8.57;3.50;;;;;;;;;;5070904;28;20044;-70
2022/08/13 04:53:44;;;;;;;9.48;3.33;;;;;;;;;;5054570;28;20527;-70
2022/08/13 04:56:19;;;;;;;7.88;3.53;;;;;;;;;;5030542;28;20057;-69
2022/08/13 04:58:50;;;;;;;8.65;3.58;;;;;;;;;;4991098;28;20057;-71
2022/08/13 05:01:21;;;;;;;7.40;3.10;;;;;;;;;;4975068;28;20055;-70
2022/08/13 05:04:12;;;;;;;8.38;3.15;;;;;;;;;;4958565;28;20058;-70
2022/08/13 05:06:52;;;;;;;7.85;3.47;;;;;;;;;;4971724;28;20065;-70
2022/08/13 05:09:23;;;;;;;7.63;3.60;;;;;;;;;;4991017;28;20050;-71
2022/08/13 05:12:00;;;;;;;7.45;2.90;;;;;;;;;;4991318;28;20049;-69
2022/08/13 05:14:35;;;;;;;5.35;3.20;;;;;;;;;;5007235;28;20514;-70
2022/08/13 05:17:07;;;;;;;6.68;3.78;;;;;;;;;;5010479;28;20062;-70
2022/08/13 05:19:45;;;;;;;5.43;2.65;;;;;;;;;;4977179;28;20056;-69
2022/08/13 05:22:21;;;;;;;8.40;2.63;;;;;;;;;;5010392;28;20058;-71
2022/08/13 05:24:58;;;;;;;4.97;2.70;;;;;;;;;;5010456;28;20058;-70
2022/08/13 05:27:48;;;;;;;5.18;3.13;;;;;;;;;;5010564;28;20058;-70
2022/08/13 05:30:19;;;;;;;5.03;2.50;;;;;;;;;;4958107;28;20054;-72
2022/08/13 05:33:00;;;;;;;7.28;2.10;;;;;;;;;;4960649;28;20477;-70
2022/08/13 05:35:48;;;;;;;6.65;1.75;;;;;;;;;;4946115;28;20481;-70
2022/08/13 05:38:39;;;;;;;4.95;2.60;;;;;;;;;;5029600;28;20061;-71
2022/08/13 05:41:13;;;;;;;7.10;2.58;;;;;;;;;;5010492;28;20048;-71
2022/08/13 05:43:45;;;;;;;5.07;2.40;;;;;;;;;;5089961;28;20074;-70
2022/08/13 05:46:24;;;;;;;2.03;1.17;;;;;;;;;;5089830;28;20078;-70
2022/08/13 05:48:56;;;;;;;3.63;1.63;;;;;;;;;;5089742;28;20493;-72
2022/08/13 05:51:31;;;;;;;3.45;1.52;;;;;;;;;;5069392;28;20412;-70
2022/08/13 05:54:22;;;;;;;4.60;2.10;;;;;;;;;;5009687;28;20482;-70
2022/08/13 05:57:12;;;;;;;4.15;2.08;;;;;;;;;;5009727;28;20541;-73
2022/08/13 06:05:30;;;;;;;5.50;2.17;;;;;;;;;;5009198;28;20065;-72
2022/08/13 06:08:17;;;;;;;3.33;1.55;;;;;;;;;;5022062;28;20061;-70
2022/08/13 06:11:15;;;;;;;2.55;1.42;;;;;;;;;;5029512;28;20057;-71
2022/08/13 06:13:48;;;;;;;5.70;2.35;;;;;;;;;;5033426;28;20061;-71
2022/08/13 06:16:35;;;;;;;4.28;1.63;;;;;;;;;;5041350;28;20504;-70
2022/08/13 06:19:28;;;;;;;3.92;1.58;;;;;;;;;;4986428;28;20417;-73
2022/08/13 06:22:04;;;;;;;2.95;1.77;;;;;;;;;;4992597;28;20054;-70
2022/08/13 06:24:43;;;;;;;3.70;1.92;;;;;;;;;;5009172;28;20068;-70
2022/08/13 06:27:24;;;;;;;3.85;1.90;;;;;;;;;;5009241;28;20073;-70
2022/08/13 06:30:18;;;;;;;3.80;2.00;;;;;;;;;;4969474;28;20482;-71
2022/08/13 06:33:03;;;;;;;3.83;1.20;;;;;;;;;;4954588;28;20397;-70
2022/08/13 06:35:56;;;;;;;4.68;1.77;;;;;;;;;;4950571;28;20059;-71
2022/08/13 06:38:30;;;;;;;3.05;1.60;;;;;;;;;;4950800;28;20063;-70
2022/08/13 06:41:05;;;;;;;4.68;1.55;;;;;;;;;;4950670;28;20058;-70
2022/08/13 06:43:36;;;;;;;;;;;;;;;;;;4941409;29;20043;-70
2022/08/13 06:46:27;;;;;;;3.20;1.70;;;;;;;;;;4931223;29;19923;-71
2022/08/13 06:49:02;;;;;;;4.63;2.30;;;;;;;;;;4931456;29;20055;-70
2022/08/13 06:51:35;;;;;;;4.25;1.67;;;;;;;;;;4920249;29;20064;-70
2022/08/13 06:54:08;;;;;;;4.50;2.15;;;;;;;;;;4912461;29;20807;-70
2022/08/13 06:57:00;;;;;;;3.28;1.80;;;;;;;;;;4893085;29;20063;-71
2022/08/13 06:59:49;;;;;;;2.92;1.45;;;;;;;;;;4915114;29;20060;-72
2022/08/13 07:02:44;;;;;;;3.47;1.50;;;;;;;;;;4918635;29;20059;-70
2022/08/13 07:05:16;;;;;;;4.53;1.50;;;;;;;;;;4912183;29;20531;-70
2022/08/13 07:07:55;;;;;;;3.25;1.45;;;;;;;;;;4944047;28;20078;-72
2022/08/13 07:10:36;;;;;;;5.30;1.42;;;;;;;;;;4930888;29;20062;-70
2022/08/13 07:13:06;;;;;;;4.05;1.70;;;;;;;;;;4909940;29;20060;-71
2022/08/13 07:15:57;;;;;;;2.20;1.55;;;;;;;;;;4907681;29;20056;-70
2022/08/13 07:18:28;;;;;;;3.20;1.00;;;;;;;;;;4931017;29;20420;-71
2022/08/13 07:21:09;;;;;;;3.55;1.75;;;;;;;;;;4931081;29;20055;-70
2022/08/13 07:23:41;;;;;;;2.78;1.25;;;;;;;;;;4931028;29;20121;-71
2022/08/13 07:26:35;;;;;;;2.47;1.20;;;;;;;;;;4931166;29;20052;-71
2022/08/13 07:29:14;;;;;;;3.60;1.20;;;;;;;;;;4949816;29;20055;-71
2022/08/13 07:31:44;;;;;;;3.90;1.02;;;;;;;;;;4950148;29;20407;-71
2022/08/13 07:34:35;;;;;;;2.30;1.20;;;;;;;;;;4900882;29;20048;-73
2022/08/13 07:37:09;;;;;;;3.28;0.80;;;;;;;;;;4931121;29;20408;-71
2022/08/13 07:39:42;;;;;;;3.13;1.40;;;;;;;;;;4931034;29;20056;-70
2022/08/13 07:42:23;;;;;;;6.80;1.65;;;;;;;;;;4924565;28;20069;-71
2022/08/13 07:45:02;;;;;;;5.63;2.00;;;;;;;;;;4973235;28;20050;-71
2022/08/13 07:47:54;;;;;;;2.40;1.08;;;;;;;;;;4979991;28;20050;-71
2022/08/13 07:50:45;;;;;;;3.95;1.50;;;;;;;;;;4963699;28;20066;-71
2022/08/13 07:53:35;;;;;;;2.45;1.38;;;;;;;;;;4946248;28;20098;-71
2022/08/13 07:56:28;;;;;;;6.13;1.33;;;;;;;;;;4973379;28;20470;-71
2022/08/13 07:59:11;;;;;;;1.75;1.05;;;;;;;;;;4940837;28;20063;-73
2022/08/13 08:01:54;;;;;;;3.90;1.30;;;;;;;;;;4934333;29;20047;-70
2022/08/13 08:04:45;;;;;;;1.95;1.30;;;;;;;;;;4934689;29;20056;-71
2022/08/13 08:07:25;;;;;;;2.40;1.30;;;;;;;;;;4947753;29;20499;-71
2022/08/13 08:10:15;;;;;;;3.47;1.30;;;;;;;;;;4927922;29;20055;-72
2022/08/13 08:12:47;;;;;;;3.85;0.90;;;;;;;;;;4970220;28;20416;-70
2022/08/13 08:15:24;;;;;;;4.30;1.10;;;;;;;;;;4957335;28;20411;-70
2022/08/13 08:18:14;;;;;;;2.83;1.08;;;;;;;;;;4972664;28;20058;-72
2022/08/13 08:21:07;;;;;;;3.03;1.33;;;;;;;;;;4972677;28;20055;-71
2022/08/13 08:24:03;;;;;;;2.25;1.13;;;;;;;;;;4933756;29;20066;-70
2022/08/13 08:26:49;;;;;;;3.28;1.33;;;;;;;;;;4992080;28;20058;-71
2022/08/13 08:29:20;;;;;;;3.85;1.95;;;;;;;;;;5009371;28;20053;-70
2022/08/13 08:31:53;;;;;;;2.83;1.00;;;;;;;;;;5011195;28;20422;-71
2022/08/13 08:34:30;;;;;;;2.55;1.30;;;;;;;;;;5011509;28;20061;-70
2022/08/13 08:37:00;;;;;;;3.45;1.27;;;;;;;;;;5011188;28;20061;-73
2022/08/13 08:42:38;;;;;;;2.97;0.80;;;;;;;;;;5030875;28;20517;-70
2022/08/13 08:45:31;;;;;;;1.95;1.10;;;;;;;;;;5031102;28;20060;-70
2022/08/13 08:48:21;;;;;;;5.38;1.23;;;;;;;;;;5010713;28;20069;-71
2022/08/13 08:50:55;;;;;;;2.45;1.20;;;;;;;;;;5011224;28;20061;-70
2022/08/13 08:53:28;;;;;;;3.67;1.17;;;;;;;;;;4978311;28;20077;-73
2022/08/13 08:56:20;;;;;;;2.30;1.08;;;;;;;;;;4990535;28;20061;-70
2022/08/13 08:58:55;;;;;;;2.85;1.42;;;;;;;;;;4991308;28;20058;-70
2022/08/13 09:01:26;;;;;;;4.43;1.55;;;;;;;;;;4954310;28;20061;-71
2022/08/13 09:04:05;;;;;;;5.00;1.45;;;;;;;;;;4990764;28;20054;-71
2022/08/13 09:06:36;;;;;;;3.70;2.80;;;;;;;;;;4975608;28;20506;-71
2022/08/13 09:09:26;;;;;;;2.88;1.67;;;;;;;;;;5000097;28;20066;-71
2022/08/13 09:11:57;;;;;;;3.90;1.45;;;;;;;;;;5010895;28;20061;-71
2022/08/13 09:14:31;;;;;;;2.85;1.20;;;;;;;;;;5010354;28;20054;-71
2022/08/13 09:17:05;;;;;;;2.10;1.10;;;;;;;;;;4994800;28;20057;-70
2022/08/13 09:19:44;;;;;;;2.70;1.20;;;;;;;;;;4960600;28;20473;-70
2022/08/13 09:22:24;;;;;;;3.35;1.50;;;;;;;;;;4971343;28;20051;-73
2022/08/13 09:24:58;;;;;;;4.47;1.33;;;;;;;;;;4967433;28;20050;-70
2022/08/13 09:27:30;;;;;;;3.10;1.17;;;;;;;;;;4936781;29;20063;-71
2022/08/13 09:30:20;;;;;;;5.00;1.42;;;;;;;;;;4955779;28;20055;-71
2022/08/13 09:32:57;;;;;;;2.53;1.33;;;;;;;;;;4971383;28;20057;-72
2022/08/13 09:35:30;;;;;;;1.95;1.13;;;;;;;;;;4955284;28;20070;-71
2022/08/13 09:38:08;;;;;;;3.85;1.17;;;;;;;;;;4971218;28;20063;-71
2022/08/13 09:40:51;;;;;;;4.03;1.25;;;;;;;;;;4972495;28;20577;-70
2022/08/13 09:43:41;;;;;;;2.38;1.17;;;;;;;;;;4990519;28;20062;-71
2022/08/13 09:46:21;;;;;;;2.35;1.38;;;;;;;;;;4990555;28;20054;-71
2022/08/13 09:48:59;;;;;;;2.53;1.25;;;;;;;;;;4990415;28;20050;-72
2022/08/13 09:51:34;;;;;;;3.05;1.33;;;;;;;;;;4990293;28;20062;-69
2022/08/13 09:54:24;;;;;;;6.07;1.20;;;;;;;;;;5007565;28;20057;-69
2022/08/13 09:56:58;;;;;;;3.17;1.50;;;;;;;;;;5016596;28;20105;-70
2022/08/13 09:59:32;;;;;;;3.67;1.40;;;;;;;;;;4980595;28;20061;-73
2022/08/13 10:02:09;;;;;;;2.97;1.75;;;;;;;;;;5041755;28;20064;-70
2022/08/13 10:04:45;;;;;;;5.60;2.80;;;;;;;;;;5049207;28;20068;-70
2022/08/13 10:07:16;;;;;;;5.55;2.72;;;;;;;;;;5032644;28;20057;-70
2022/08/13 10:09:50;;;;;;;6.07;2.75;;;;;;;;;;5049241;28;20060;-70
2022/08/13 10:12:41;;;;;;;5.82;3.78;;;;;;;;;;5063427;28;20048;-71
2022/08/13 10:15:15;;;;;;;5.72;2.30;;;;;;;;;;5068958;28;20060;-70
2022/08/13 10:17:58;;;;;;;3.35;1.90;;;;;;;;;;5019436;28;20052;-69
2022/08/13 10:20:45;;;;;;;5.45;2.28;;;;;;;;;;5069013;28;20056;-69
2022/08/13 10:23:20;;;;;;;3.78;2.28;;;;;;;;;;5068776;28;20052;-70
2022/08/13 10:26:03;;;;;;;5.78;2.45;;;;;;;;;;4980049;28;20049;-71
2022/08/13 10:28:38;;;;;;;5.53;2.17;;;;;;;;;;5012707;28;20494;-70
2022/08/13 10:31:16;;;;;;;5.22;1.90;;;;;;;;;;4970002;28;20054;-70
2022/08/13 10:34:06;;;;;;;4.50;2.17;;;;;;;;;;4970392;28;20089;-70
2022/08/13 10:36:37;;;;;;;4.07;1.90;;;;;;;;;;4954175;28;20083;-70
2022/08/13 10:39:07;;;;;;;4.65;1.88;;;;;;;;;;4954569;28;20043;-71
2022/08/13 10:41:45;;;;;;;3.65;1.90;;;;;;;;;;4975402;28;20069;-71
2022/08/13 10:44:31;;;;;;;4.80;2.28;;;;;;;;;;4975886;28;20069;-70
2022/08/13 10:47:04;;;;;;;3.25;1.98;;;;;;;;;;4941135;28;20074;-71
2022/08/13 10:49:34;;;;;;;9.63;3.60;;;;;;;;;;4997253;28;20057;-70
2022/08/13 10:52:05;;;;;;;4.90;1.92;;;;;;;;;;5028943;28;20436;-70
2022/08/13 10:54:36;;;;;;;6.05;2.38;;;;;;;;;;5028681;28;20053;-71
2022/08/13 10:57:08;;;;;;;5.95;2.45;;;;;;;;;;5028404;28;20073;-71
2022/08/13 10:59:41;;;;;;;;;;;;;;;;;;4989566;28;20054;-71
2022/08/13 11:02:12;;;;;;;8.50;2.70;;;;;;;;;;4989116;28;20365;-70
2022/08/13 11:04:49;;;;;;;4.72;2.72;;;;;;;;;;5028479;28;20061;-70
2022/08/13 11:07:22;;;;;;;7.25;3.28;;;;;;;;;;5028514;28;20046;-71
2022/08/13 11:09:54;;;;;;;6.50;2.90;;;;;;;;;;5066321;28;20056;-70
2022/08/13 11:12:25;;;;;;;5.82;2.90;;;;;;;;;;5047933;28;20062;-70
2022/08/13 11:14:55;;;;;;;5.05;2.35;;;;;;;;;;5048144;28;20053;-70
2022/08/13 11:17:25;;;;;;;7.85;3.30;;;;;;;;;;5047184;28;20092;-69
2022/08/13 11:20:19;;;;;;;11.45;3.90;;;;;;;;;;5048100;28;20137;-69
2022/08/13 11:22:55;;;;;;;7.63;3.17;;;;;;;;;;4998858;28;20073;-70
2022/08/13 11:25:27;;;;;;;6.43;3.22;;;;;;;;;;5027804;28;20049;-71
2022/08/13 11:28:18;;;;;;;6.05;3.25;;;;;;;;;;4988353;28;20066;-70
2022/08/13 11:30:49;;;;;;;5.57;2.95;;;;;;;;;;4956280;28;20051;-70
2022/08/13 11:33:22;;;;;;;6.38;3.20;;;;;;;;;;4988876;28;20065;-69
2022/08/13 11:36:12;;;;;;;6.72;3.35;;;;;;;;;;4950118;28;20782;-70
2022/08/13 11:38:43;;;;;;;7.68;3.00;;;;;;;;;;4949777;28;20532;-69
2022/08/13 11:41:14;;;;;;;12.68;3.28;;;;;;;;;;4934459;28;20063;-71
2022/08/13 11:43:49;;;;;;;6.28;3.10;;;;;;;;;;4949885;28;20067;-70
2022/08/13 11:46:29;;;;;;;9.20;3.90;;;;;;;;;;4918337;28;20059;-72
2022/08/13 11:49:00;;;;;;;7.90;3.30;;;;;;;;;;4950824;28;20051;-70
2022/08/13 11:51:39;;;;;;;6.95;3.03;;;;;;;;;;4969189;28;20531;-71
2022/08/13 11:54:22;;;;;;;4.82;2.60;;;;;;;;;;4969083;28;20054;-71
2022/08/13 11:57:05;;;;;;;6.43;3.22;;;;;;;;;;4969374;28;20046;-70
2022/08/13 11:59:42;;;;;;;5.15;2.90;;;;;;;;;;4936967;28;20051;-71
2022/08/13 12:02:23;;;;;;;5.78;3.00;;;;;;;;;;4938336;28;20055;-71
2022/08/13 12:05:00;;;;;;;7.65;4.72;;;;;;;;;;4947117;28;20059;-71
2022/08/13 12:07:40;;;;;;;5.70;2.80;;;;;;;;;;4949724;29;20060;-71
2022/08/13 12:10:19;;;;;;;8.15;3.10;;;;;;;;;;4930663;29;20066;-71
2022/08/13 12:13:09;;;;;;;6.15;2.00;;;;;;;;;;4937956;28;20054;-74
2022/08/13 12:15:40;;;;;;;4.45;2.60;;;;;;;;;;4961825;28;20064;-72
2022/08/13 12:18:31;;;;;;;3.67;1.63;;;;;;;;;;5008006;28;20049;-72
2022/08/13 12:21:01;;;;;;;6.10;2.40;;;;;;;;;;4952391;28;20058;-71
2022/08/13 12:23:33;;;;;;;3.63;1.40;;;;;;;;;;4969173;28;20063;-73
2022/08/13 12:26:07;;;;;;;7.05;2.55;;;;;;;;;;4952803;28;20102;-72
2022/08/13 12:28:40;;;;;;;3.90;1.15;;;;;;;;;;4969548;28;20414;-72
2022/08/13 12:31:14;;;;;;;3.13;1.40;;;;;;;;;;4972173;28;20063;-71
2022/08/13 12:33:45;;;;;;;2.22;1.20;;;;;;;;;;4972391;28;20526;-72
2022/08/13 12:36:15;;;;;;;5.22;1.80;;;;;;;;;;4972329;28;20542;-72
2022/08/13 12:38:46;;;;;;;4.45;1.40;;;;;;;;;;4973551;28;20411;-74
2022/08/13 12:41:31;;;;;;;3.20;1.42;;;;;;;;;;4976833;28;20046;-72
2022/08/13 12:44:13;;;;;;;;;;;;;;;;;;4920248;29;20056;-70
2022/08/13 12:47:03;;;;;;;4.22;1.95;;;;;;;;;;4918187;29;19923;-72
2022/08/13 12:49:34;;;;;;;4.20;2.05;;;;;;;;;;4933772;29;20067;-71
2022/08/13 12:52:24;;;;;;;4.32;2.05;;;;;;;;;;4931174;29;20059;-71
2022/08/13 12:55:01;;;;;;;4.30;2.17;;;;;;;;;;4914497;29;20064;-71
2022/08/13 12:57:52;;;;;;;5.45;2.83;;;;;;;;;;4920194;29;20055;-70
2022/08/13 13:00:33;;;;;;;11.90;4.10;;;;;;;;;;4952915;29;20531;-71
2022/08/13 13:03:06;;;;;;;6.30;3.35;;;;;;;;;;4953012;29;20059;-70
2022/08/13 13:05:44;;;;;;;9.23;3.42;;;;;;;;;;4952529;29;20063;-73
2022/08/13 13:08:17;;;;;;;7.70;2.33;;;;;;;;;;4958216;28;20058;-70
2022/08/13 13:11:03;;;;;;;5.80;2.80;;;;;;;;;;4939642;28;20059;-70
2022/08/13 13:13:49;;;;;;;5.47;2.80;;;;;;;;;;4980455;28;20057;-70
2022/08/13 13:16:35;;;;;;;5.35;1.65;;;;;;;;;;4971245;28;20054;-69
2022/08/13 13:19:12;;;;;;;4.05;1.45;;;;;;;;;;4952878;28;20064;-74
2022/08/13 13:21:46;;;;;;;3.70;1.30;;;;;;;;;;5019377;28;20096;-70
2022/08/13 13:24:19;;;;;;;6.00;2.05;;;;;;;;;;5027915;28;20063;-70
2022/08/13 13:26:55;;;;;;;3.35;1.50;;;;;;;;;;5036888;28;20056;-69
2022/08/13 13:29:41;;;;;;;4.45;1.83;;;;;;;;;;5070271;28;20052;-69
2022/08/13 13:32:13;;;;;;;2.28;1.20;;;;;;;;;;5070273;28;20048;-69
2022/08/13 13:35:04;;;;;;;2.30;1.23;;;;;;;;;;5070043;28;20056;-71
2022/08/13 13:37:54;;;;;;;2.50;1.40;;;;;;;;;;5069970;28;20045;-69
2022/08/13 13:40:43;;;;;;;3.72;1.40;;;;;;;;;;5029115;28;20053;-69
2022/08/13 13:43:19;;;;;;;3.15;1.23;;;;;;;;;;4980857;28;20053;-69
2022/08/13 13:45:55;;;;;;;4.10;1.20;;;;;;;;;;5005623;28;20514;-68
2022/08/13 13:48:34;;;;;;;6.00;1.10;;;;;;;;;;4970499;28;20058;-67
2022/08/13 13:51:07;;;;;;;3.78;1.10;;;;;;;;;;4970919;28;20058;-68
2022/08/13 13:53:41;;;;;;;2.92;0.82;;;;;;;;;;4936587;29;20404;-68
2022/08/13 13:56:31;;;;;;;1.67;1.08;;;;;;;;;;4951342;29;20062;-69
2022/08/13 13:59:01;;;;;;;1.35;0.90;;;;;;;;;;4970193;28;20051;-69
2022/08/13 14:01:33;;;;;;;2.97;1.10;;;;;;;;;;4971265;28;20059;-68
2022/08/13 14:04:20;;;;;;;2.17;0.95;;;;;;;;;;4970434;28;20063;-73
2022/08/13 14:07:03;;;;;;;1.33;0.80;;;;;;;;;;4966549;28;20051;-71
2022/08/13 14:09:53;;;;;;;1.10;0.80;;;;;;;;;;4951334;29;20051;-68
2022/08/13 14:12:31;;;;;;;1.60;1.00;;;;;;;;;;4951126;29;20055;-69
2022/08/13 14:15:22;;;;;;;5.57;0.93;;;;;;;;;;4951078;29;20055;-70
2022/08/13 14:17:54;;;;;;;2.15;0.98;;;;;;;;;;4947194;29;20462;-68
2022/08/13 14:20:46;;;;;;;1.63;0.85;;;;;;;;;;4950888;28;20051;-68
2022/08/13 14:23:22;;;;;;;4.20;1.10;;;;;;;;;;4915603;29;20063;-70
2022/08/13 14:26:08;;;;;;;2.63;1.00;;;;;;;;;;4939665;28;20063;-68
2022/08/13 14:28:42;;;;;;;2.15;1.35;;;;;;;;;;4951008;28;20059;-70
2022/08/13 14:31:15;;;;;;;2.95;0.93;;;;;;;;;;4951033;28;20466;-71
2022/08/13 14:33:47;;;;;;;1.95;1.13;;;;;;;;;;4964030;28;20635;-69
2022/08/13 14:36:31;;;;;;;2.15;0.90;;;;;;;;;;4998027;28;20065;-70
2022/08/13 14:39:22;;;;;;;4.25;1.55;;;;;;;;;;5009169;28;20057;-69
2022/08/13 14:41:52;;;;;;;2.80;0.85;;;;;;;;;;4969919;28;20054;-68
2022/08/13 14:44:22;;;;;;;1.80;0.90;;;;;;;;;;4958577;28;20051;-73
2022/08/13 14:47:13;;;;;;;1.67;0.95;;;;;;;;;;4970183;28;20058;-68
2022/08/13 14:49:44;;;;;;;2.88;0.90;;;;;;;;;;4970219;28;20053;-69
2022/08/13 14:52:27;;;;;;;1.30;0.80;;;;;;;;;;4953013;28;20535;-75
2022/08/13 14:55:21;;;;;;;3.22;1.02;;;;;;;;;;4977826;28;20061;-67
2022/08/13 14:57:54;;;;;;;1.40;1.00;;;;;;;;;;4969492;28;20065;-69
2022/08/13 15:00:47;;;;;;;2.22;1.20;;;;;;;;;;4988874;28;20066;-69
2022/08/13 15:03:17;;;;;;;1.70;1.02;;;;;;;;;;4989421;28;20061;-69
2022/08/13 15:05:50;;;;;;;2.45;1.00;;;;;;;;;;4941017;28;20063;-69
2022/08/13 15:08:29;;;;;;;3.55;1.00;;;;;;;;;;4989031;28;20533;-70
2022/08/13 15:11:06;;;;;;;4.07;1.10;;;;;;;;;;4934038;29;20455;-71
2022/08/13 15:13:47;;;;;;;2.50;0.95;;;;;;;;;;4924252;28;20055;-74
2022/08/13 15:16:24;;;;;;;;;;;;;;;;;;4951072;29;20055;-69
2022/08/13 15:19:04;;;;;;;1.65;1.10;;;;;;;;;;4962527;28;19922;-68
2022/08/13 15:21:47;;;;;;;2.25;0.98;;;;;;;;;;4996361;28;20054;-70
2022/08/13 15:24:25;;;;;;;1.98;0.95;;;;;;;;;;5008668;28;20395;-68
2022/08/13 15:27:39;;;;;;;2.42;0.90;;;;;;;;;;4995460;28;20045;-67
2022/08/13 15:30:16;;;;;;;1.83;1.00;;;;;;;;;;5008437;28;20054;-70
2022/08/13 15:33:02;;;;;;;1.92;1.00;;;;;;;;;;5008513;28;20410;-68
2022/08/13 15:35:35;;;;;;;3.53;1.13;;;;;;;;;;5008971;28;20053;-69
2022/08/13 15:38:12;;;;;;;3.78;1.38;;;;;;;;;;4992620;28;20542;-68
2022/08/13 15:40:52;;;;;;;1.02;0.60;;;;;;;;;;4969370;28;20446;-70
2022/08/13 15:43:27;;;;;;;2.78;1.15;;;;;;;;;;5008133;28;20054;-69
2022/08/13 15:46:05;;;;;;;2.45;0.50;;;;;;;;;;4960058;28;20414;-70
2022/08/13 15:48:39;;;;;;;3.53;1.10;;;;;;;;;;5027805;28;20061;-69
2022/08/13 15:51:11;;;;;;;3.45;1.80;;;;;;;;;;5047878;28;20045;-69
2022/08/13 15:53:45;;;;;;;1.67;0.98;;;;;;;;;;5047782;28;20088;-69
2022/08/13 15:56:17;;;;;;;2.50;1.38;;;;;;;;;;5047889;28;20155;-69
2022/08/13 15:58:50;;;;;;;;;;;;;;;;;;5048445;28;20044;-68
2022/08/13 16:01:23;;;;;;;3.38;1.00;;;;;;;;;;5027618;28;19921;-68
2022/08/13 16:03:55;;;;;;;3.00;1.05;;;;;;;;;;5008800;28;20046;-70
2022/08/13 16:06:28;;;;;;;4.65;0.88;;;;;;;;;;4957153;28;20054;-69
2022/08/13 16:09:02;;;;;;;3.20;1.58;;;;;;;;;;4972791;28;20055;-68
2022/08/13 16:11:37;;;;;;;2.28;0.50;;;;;;;;;;4957524;28;20411;-69
2022/08/13 16:14:19;;;;;;;2.00;1.15;;;;;;;;;;4990485;28;20069;-70